Time;durP1;ratioP1;P1;durP2;ratioP2;P2;SDS_P1;SDS_P2;PMS_P1;PMS_P2;Temp;Humidity;BMP_temperature;BMP_pressure;BME280_temperature;BME280_humidity;BME280_pressure;Samples;Min_cycle;Max_cycle;Signal;HPM_P1;HPM_P2
2024/01/16 00:02:16;;;;;;;;;;;-1.50;99.90;;;;;;5121708;28;19926;-70
2024/01/16 00:04:42;;;;;;;;;;;-1.50;99.90;;;;;;5119811;28;19964;-68
2024/01/16 00:07:10;;;;;;;;;;;-1.50;99.90;;;;;;5123798;28;19920;-69
2024/01/16 00:09:37;;;;;;;;;;;-1.50;99.90;;;;;;5123876;28;20352;-68
2024/01/16 00:12:04;;;;;;;;;;;-1.50;99.90;;;;;;5124004;28;19919;-70
2024/01/16 00:14:31;;;;;;;;;;;-1.50;99.90;;;;;;5123627;28;19920;-68
2024/01/16 00:16:58;;;;;;;;;;;-1.60;99.90;;;;;;5123955;28;19982;-69
2024/01/16 00:19:24;;;;;;;;;;;-1.60;99.90;;;;;;5115579;28;19958;-70
2024/01/16 00:21:51;;;;;;;;;;;-1.60;99.90;;;;;;5123713;28;20229;-69
2024/01/16 00:24:19;;;;;;;;;;;-1.60;99.90;;;;;;5123610;28;20109;-70
2024/01/16 00:26:46;;;;;;;;;;;-1.60;99.90;;;;;;5124195;28;19962;-68
2024/01/16 00:29:12;;;;;;;;;;;-1.70;99.90;;;;;;5127928;28;19920;-68
2024/01/16 00:31:39;;;;;;;;;;;-1.70;99.90;;;;;;5127824;28;19920;-68
2024/01/16 00:34:06;;;;;;;;;;;-1.60;99.90;;;;;;5127616;28;19951;-73
2024/01/16 00:36:32;;;;;;;;;;;-1.70;99.90;;;;;;5127524;28;19930;-69
2024/01/16 00:38:59;;;;;;;;;;;-1.70;99.90;;;;;;5127720;28;19942;-70
2024/01/16 00:41:27;;;;;;;;;;;-1.60;99.90;;;;;;5127400;28;19983;-70
2024/01/16 00:43:54;;;;;;;;;;;-1.60;99.90;;;;;;5127362;28;19924;-69
2024/01/16 00:46:20;;;;;;;;;;;-1.70;99.90;;;;;;5127446;28;19920;-68
2024/01/16 00:48:47;;;;;;;;;;;-1.70;99.90;;;;;;5127164;28;19962;-68
2024/01/16 00:51:14;;;;;;;;;;;-1.70;99.90;;;;;;5127550;28;20003;-70
2024/01/16 00:53:40;;;;;;;;;;;-1.60;99.90;;;;;;5127366;28;20007;-70
2024/01/16 00:56:07;;;;;;;;;;;-1.60;99.90;;;;;;5127131;28;19970;-68
2024/01/16 00:58:35;;;;;;;;;;;-1.60;99.90;;;;;;5127275;28;19984;-68
2024/01/16 01:01:01;;;;;;;;;;;-1.60;99.90;;;;;;5126994;28;19920;-69
2024/01/16 01:03:28;;;;;;;;;;;-1.70;99.90;;;;;;5126984;28;19987;-68
2024/01/16 01:05:54;;;;;;;;;;;-1.60;99.90;;;;;;5126554;28;20280;-70
2024/01/16 01:08:21;;;;;;;;;;;-1.60;99.90;;;;;;5126980;28;19990;-68
2024/01/16 01:10:48;;;;;;;;;;;-1.70;99.90;;;;;;5127235;28;19982;-69
2024/01/16 01:13:14;;;;;;;;;;;-1.60;99.90;;;;;;5126954;28;19958;-69
2024/01/16 01:15:42;;;;;;;;;;;-1.70;99.90;;;;;;5126348;28;19995;-68
2024/01/16 01:18:09;;;;;;;;;;;-1.70;99.90;;;;;;5126795;28;20113;-72
2024/01/16 01:20:36;;;;;;;;;;;-1.70;99.90;;;;;;5127176;28;19927;-68
2024/01/16 01:23:02;;;;;;;;;;;-1.70;99.90;;;;;;5126569;28;19955;-68
2024/01/16 01:25:29;;;;;;;;;;;-1.70;99.90;;;;;;5126404;28;20129;-68
2024/01/16 01:27:56;;;;;;;;;;;-1.70;99.90;;;;;;5126535;28;19926;-68
2024/01/16 01:30:22;;;;;;;;;;;-1.70;99.90;;;;;;5126643;28;19919;-68
2024/01/16 01:32:50;;;;;;;;;;;-1.70;99.90;;;;;;5126697;28;19987;-68
2024/01/16 01:35:19;;;;;;;;;;;-1.70;99.90;;;;;;5125931;28;19995;-70
2024/01/16 01:37:46;;;;;;;;;;;-1.70;99.90;;;;;;5126225;28;19927;-69
2024/01/16 01:40:14;;;;;;;;;;;-1.70;99.90;;;;;;5125556;28;19983;-69
2024/01/16 01:42:41;;;;;;;;;;;-1.70;99.90;;;;;;5126514;28;19920;-69
2024/01/16 01:45:08;;;;;;;;;;;-1.70;99.90;;;;;;5126010;28;20220;-68
2024/01/16 01:47:35;;;;;;;;;;;-1.70;99.90;;;;;;5126272;28;19920;-69
2024/01/16 01:50:04;;;;;;;;;;;-1.80;99.90;;;;;;5126214;28;19983;-69
2024/01/16 01:52:31;;;;;;;;;;;-1.70;99.90;;;;;;5126300;28;19994;-68
2024/01/16 01:54:58;;;;;;;;;;;-1.80;99.90;;;;;;5125850;28;19951;-68
2024/01/16 01:57:25;;;;;;;;;;;-1.80;99.90;;;;;;5126171;28;20168;-69
2024/01/16 01:59:52;;;;;;;;;;;-1.80;99.90;;;;;;5126013;28;20156;-68
2024/01/16 02:02:19;;;;;;;;;;;-1.80;99.90;;;;;;5126091;28;19994;-69
2024/01/16 02:04:46;;;;;;;;;;;-1.80;99.90;;;;;;5124217;28;19986;-70
2024/01/16 02:07:15;;;;;;;;;;;-1.80;99.90;;;;;;5125928;28;19965;-71
2024/01/16 02:09:42;;;;;;;;;;;-1.80;99.90;;;;;;5125500;28;20218;-68
2024/01/16 02:12:09;;;;;;;;;;;-1.80;99.90;;;;;;5125595;28;19954;-68
2024/01/16 02:14:36;;;;;;;;;;;-1.80;99.90;;;;;;5125664;28;19947;-70
2024/01/16 02:17:02;;;;;;;;;;;-1.80;99.90;;;;;;5125441;28;19951;-68
2024/01/16 02:19:29;;;;;;;;;;;-1.80;99.90;;;;;;5125654;28;19951;-68
2024/01/16 02:21:58;;;;;;;;;;;-1.80;99.90;;;;;;5125907;28;19950;-69
2024/01/16 02:24:26;;;;;;;;;;;-1.80;99.90;;;;;;5125498;28;19982;-69
2024/01/16 02:26:53;;;;;;;;;;;-1.80;99.90;;;;;;5125293;28;19983;-69
2024/01/16 02:29:20;;;;;;;;;;;-1.80;99.90;;;;;;5125479;28;19951;-68
2024/01/16 02:31:46;;;;;;;;;;;-1.80;99.90;;;;;;5125533;28;19951;-70
2024/01/16 02:34:13;;;;;;;;;;;-1.80;99.90;;;;;;5124587;28;20213;-68
2024/01/16 02:36:39;;;;;;;;;;;-1.80;99.90;;;;;;5124882;28;19920;-69
2024/01/16 02:39:06;;;;;;;;;;;-1.80;99.90;;;;;;5125349;28;19958;-69
2024/01/16 02:41:34;;;;;;;;;;;-1.80;99.90;;;;;;5124851;28;19920;-70
2024/01/16 02:44:01;;;;;;;;;;;-1.80;99.90;;;;;;5124712;28;19948;-68
2024/01/16 02:46:28;;;;;;;;;;;-1.80;99.90;;;;;;5125141;28;20110;-68
2024/01/16 02:48:54;;;;;;;;;;;-1.80;99.90;;;;;;5125114;28;19919;-68
2024/01/16 02:51:21;;;;;;;;;;;-1.80;99.90;;;;;;5125075;28;19960;-69
2024/01/16 02:53:47;;;;;;;;;;;-1.80;99.90;;;;;;5124761;28;19986;-68
2024/01/16 02:56:14;;;;;;;;;;;-1.70;99.90;;;;;;5125074;28;19986;-69
2024/01/16 02:58:42;;;;;;;;;;;-1.80;99.90;;;;;;5124953;28;20112;-69
2024/01/16 03:01:09;;;;;;;;;;;-1.80;99.90;;;;;;5124650;28;19958;-68
2024/01/16 03:03:36;;;;;;;;;;;-1.80;99.90;;;;;;5124501;28;19982;-68
2024/01/16 03:06:02;;;;;;;;;;;-1.70;99.90;;;;;;5121503;28;19920;-69
2024/01/16 03:08:29;;;;;;;;;;;-1.80;99.90;;;;;;5122036;28;19928;-70
2024/01/16 03:10:55;;;;;;;;;;;-1.80;99.90;;;;;;5124999;28;19927;-70
2024/01/16 03:13:22;;;;;;;;;;;-1.80;99.90;;;;;;5124854;28;19919;-68
2024/01/16 03:15:50;;;;;;;;;;;-1.80;99.90;;;;;;5124590;28;19920;-69
2024/01/16 03:18:17;;;;;;;;;;;-1.90;99.90;;;;;;5124653;28;19961;-69
2024/01/16 03:20:43;;;;;;;;;;;-1.90;99.90;;;;;;5124914;28;19986;-68
2024/01/16 03:23:10;;;;;;;;;;;-1.90;99.90;;;;;;5124855;28;19951;-69
2024/01/16 03:25:38;;;;;;;;;;;-2.00;99.90;;;;;;5124110;28;20169;-69
2024/01/16 03:28:07;;;;;;;;;;;-2.00;99.90;;;;;;5123995;28;20122;-68
2024/01/16 03:30:34;;;;;;;;;;;-2.00;99.90;;;;;;5124400;28;20113;-69
2024/01/16 03:33:02;;;;;;;;;;;-2.00;99.90;;;;;;5124083;28;20260;-68
2024/01/16 03:35:29;;;;;;;;;;;-2.00;99.90;;;;;;5123634;28;19958;-68
2024/01/16 03:37:55;;;;;;;;;;;-2.00;99.90;;;;;;5123952;28;19958;-68
2024/01/16 03:40:22;;;;;;;;;;;-2.00;99.90;;;;;;5124371;28;19950;-68
2024/01/16 03:42:49;;;;;;;;;;;-2.00;99.90;;;;;;5124293;28;19957;-68
2024/01/16 03:45:15;;;;;;;;;;;-2.00;99.90;;;;;;5123743;28;20264;-70
2024/01/16 03:47:42;;;;;;;;;;;-2.00;99.90;;;;;;5124199;28;19959;-68
2024/01/16 03:50:10;;;;;;;;;;;-1.90;99.90;;;;;;5123783;28;19923;-68
2024/01/16 03:52:37;;;;;;;;;;;-2.00;99.90;;;;;;5124165;28;19986;-69
2024/01/16 03:55:04;;;;;;;;;;;-2.00;99.90;;;;;;5123393;28;19991;-69
2024/01/16 03:57:31;;;;;;;;;;;-2.00;99.90;;;;;;5123861;28;19927;-68
2024/01/16 03:59:57;;;;;;;;;;;-2.00;99.90;;;;;;5123948;28;19951;-68
2024/01/16 04:02:24;;;;;;;;;;;-2.00;99.90;;;;;;5107065;28;19949;-69
2024/01/16 04:04:51;;;;;;;;;;;-2.00;99.90;;;;;;5123070;28;19926;-68
2024/01/16 04:07:19;;;;;;;;;;;-2.00;99.90;;;;;;5123932;28;19920;-68
2024/01/16 04:09:45;;;;;;;;;;;-1.90;99.90;;;;;;5123863;28;19991;-69
2024/01/16 04:12:12;;;;;;;;;;;-2.00;99.90;;;;;;5124147;28;19987;-68
2024/01/16 04:14:38;;;;;;;;;;;-2.00;99.90;;;;;;5123671;28;19920;-69
2024/01/16 04:17:05;;;;;;;;;;;-2.00;99.90;;;;;;5123839;28;20211;-68
2024/01/16 04:19:33;;;;;;;;;;;-2.00;99.90;;;;;;5123732;28;19920;-69
2024/01/16 04:22:00;;;;;;;;;;;-2.00;99.90;;;;;;5123550;28;19951;-68
2024/01/16 04:24:28;;;;;;;;;;;-2.00;99.90;;;;;;5123550;28;19957;-68
2024/01/16 04:26:54;;;;;;;;;;;-2.00;99.90;;;;;;5123644;28;19951;-68
2024/01/16 04:29:21;;;;;;;;;;;-2.00;99.90;;;;;;5123444;28;20001;-68
2024/01/16 04:31:48;;;;;;;;;;;-2.00;99.90;;;;;;5123302;28;20248;-67
2024/01/16 04:34:14;;;;;;;;;;;-2.00;99.90;;;;;;5123263;28;19927;-68
2024/01/16 04:36:41;;;;;;;;;;;-1.90;99.90;;;;;;5123317;28;19920;-69
2024/01/16 04:39:08;;;;;;;;;;;-1.90;99.90;;;;;;5123503;28;19920;-68
2024/01/16 04:41:37;;;;;;;;;;;-1.90;99.90;;;;;;5121939;28;20113;-69
2024/01/16 04:44:03;;;;;;;;;;;-1.90;99.90;;;;;;5123210;28;19977;-68
2024/01/16 04:46:30;;;;;;;;;;;-1.90;99.90;;;;;;5123379;28;19947;-69
2024/01/16 04:48:56;;;;;;;;;;;-2.00;99.90;;;;;;5123456;28;19919;-68
2024/01/16 04:51:23;;;;;;;;;;;-2.00;99.90;;;;;;5099544;28;19951;-68
2024/01/16 04:53:50;;;;;;;;;;;-2.00;99.90;;;;;;5094005;28;21103;-68
2024/01/16 04:56:16;;;;;;;;;;;-2.00;99.90;;;;;;5098521;28;19920;-69
2024/01/16 04:58:44;;;;;;;;;;;-2.00;99.90;;;;;;5096603;28;19951;-68
2024/01/16 05:01:11;;;;;;;;;;;-2.00;99.90;;;;;;5098109;28;19955;-68
2024/01/16 05:03:37;;;;;;;;;;;-2.00;99.90;;;;;;5095036;28;19927;-68
2024/01/16 05:06:04;;;;;;;;;;;-2.00;99.90;;;;;;5095516;28;20033;-68
2024/01/16 05:08:31;;;;;;;;;;;-2.00;99.90;;;;;;5092134;28;19990;-68
2024/01/16 05:10:58;;;;;;;;;;;-2.00;99.90;;;;;;5096475;28;19926;-68
2024/01/16 05:13:24;;;;;;;;;;;-2.00;99.90;;;;;;5095521;28;19958;-68
2024/01/16 05:15:52;;;;;;;;;;;-2.00;99.90;;;;;;5100764;28;19994;-68
2024/01/16 05:18:19;;;;;;;;;;;-1.90;99.90;;;;;;5096778;28;19963;-68
2024/01/16 05:20:45;;;;;;;;;;;-2.00;99.90;;;;;;5099632;28;19954;-67
2024/01/16 05:23:12;;;;;;;;;;;-2.00;99.90;;;;;;5099892;28;19935;-68
2024/01/16 05:25:39;;;;;;;;;;;-2.00;99.90;;;;;;5100064;28;19919;-68
2024/01/16 05:28:06;;;;;;;;;;;-2.00;99.90;;;;;;5099250;28;19926;-68
2024/01/16 05:30:33;;;;;;;;;;;-2.00;99.90;;;;;;5098345;28;19920;-70
2024/01/16 05:33:01;;;;;;;;;;;-2.00;99.90;;;;;;5097462;28;19931;-68
2024/01/16 05:35:28;;;;;;;;;;;-2.00;99.90;;;;;;5096356;28;19967;-68
2024/01/16 05:37:55;;;;;;;;;;;-2.00;99.90;;;;;;5097941;28;19920;-68
2024/01/16 05:40:22;;;;;;;;;;;-2.00;99.90;;;;;;5096506;28;19920;-68
2024/01/16 05:42:48;;;;;;;;;;;-2.10;99.90;;;;;;5108997;28;19995;-68
2024/01/16 05:45:15;;;;;;;;;;;-2.10;99.90;;;;;;5115238;28;20229;-69
2024/01/16 05:47:42;;;;;;;;;;;-2.10;99.90;;;;;;5121251;28;19951;-68
2024/01/16 05:50:10;;;;;;;;;;;-2.10;99.90;;;;;;5114338;28;19935;-68
2024/01/16 05:52:37;;;;;;;;;;;-2.00;99.90;;;;;;5106328;28;19952;-68
2024/01/16 05:55:04;;;;;;;;;;;-2.00;99.90;;;;;;5119054;28;19958;-69
2024/01/16 05:57:33;;;;;;;;;;;-2.00;99.90;;;;;;5122918;28;19919;-70
2024/01/16 06:00:01;;;;;;;;;;;-2.00;99.90;;;;;;5125541;28;19962;-70
2024/01/16 06:02:28;;;;;;;;;;;-2.00;99.90;;;;;;5108911;28;19928;-68
2024/01/16 06:04:55;;;;;;;;;;;-2.00;99.90;;;;;;5122326;28;19926;-68
2024/01/16 06:07:23;;;;;;;;;;;-2.00;99.90;;;;;;5124019;28;19920;-68
2024/01/16 06:09:50;;;;;;;;;;;-2.00;99.90;;;;;;5120705;28;20218;-68
2024/01/16 06:12:17;;;;;;;;;;;-2.00;99.90;;;;;;5123721;28;19926;-70
2024/01/16 06:14:43;;;;;;;;;;;-2.00;99.90;;;;;;5114744;28;19999;-69
2024/01/16 06:17:10;;;;;;;;;;;-2.00;99.90;;;;;;5114388;28;20000;-68
2024/01/16 06:19:37;;;;;;;;;;;-2.00;99.90;;;;;;5096769;28;19926;-68
2024/01/16 06:22:03;;;;;;;;;;;-2.00;99.90;;;;;;5104805;28;19982;-71
2024/01/16 06:24:36;;;;;;;;;;;-2.00;99.90;;;;;;5117294;28;20260;-68
2024/01/16 06:27:03;;;;;;;;;;;-2.00;99.90;;;;;;5117384;28;19927;-69
2024/01/16 06:29:30;;;;;;;;;;;-2.00;99.90;;;;;;5122399;28;19919;-68
2024/01/16 06:31:56;;;;;;;;;;;-2.00;99.90;;;;;;5117048;28;19951;-68
2024/01/16 06:34:23;;;;;;;;;;;-2.00;99.90;;;;;;5125255;28;19979;-70
2024/01/16 06:36:50;;;;;;;;;;;-2.00;99.90;;;;;;5113120;28;20289;-70
2024/01/16 06:39:16;;;;;;;;;;;-2.00;99.90;;;;;;5124049;28;19926;-68
2024/01/16 06:41:45;;;;;;;;;;;-2.00;99.90;;;;;;5125273;28;19943;-69
2024/01/16 06:44:11;;;;;;;;;;;-2.10;99.90;;;;;;5124440;28;19962;-68
2024/01/16 06:46:38;;;;;;;;;;;-2.10;99.90;;;;;;5125285;28;19983;-67
2024/01/16 06:49:04;;;;;;;;;;;-2.10;99.90;;;;;;5124512;28;19982;-67
2024/01/16 06:51:31;;;;;;;;;;;-2.10;99.90;;;;;;5124724;28;20025;-68
2024/01/16 06:53:58;;;;;;;;;;;-2.00;99.90;;;;;;5120865;28;19920;-68
2024/01/16 06:56:25;;;;;;;;;;;-2.00;99.90;;;;;;5124670;28;19920;-67
2024/01/16 06:58:53;;;;;;;;;;;-2.00;99.90;;;;;;5124747;28;19923;-69
2024/01/16 07:01:19;;;;;;;;;;;-1.90;99.90;;;;;;5124555;28;19955;-67
2024/01/16 07:03:46;;;;;;;;;;;-2.00;99.90;;;;;;5124757;28;19920;-70
2024/01/16 07:06:13;;;;;;;;;;;-2.00;99.90;;;;;;5124756;28;19927;-68
2024/01/16 07:08:39;;;;;;;;;;;-2.00;99.90;;;;;;5124651;28;20371;-70
2024/01/16 07:11:07;;;;;;;;;;;-2.00;99.90;;;;;;5124628;28;19920;-68
2024/01/16 07:13:34;;;;;;;;;;;-2.10;99.90;;;;;;5124530;28;19915;-70
2024/01/16 07:16:02;;;;;;;;;;;-2.10;99.90;;;;;;5123725;28;20269;-68
2024/01/16 07:18:29;;;;;;;;;;;-2.20;99.90;;;;;;5124079;28;19927;-69
2024/01/16 07:20:55;;;;;;;;;;;-2.20;99.90;;;;;;5116525;28;19920;-68
2024/01/16 07:23:22;;;;;;;;;;;-2.20;99.90;;;;;;5124280;28;20003;-69
2024/01/16 07:25:48;;;;;;;;;;;-2.30;99.90;;;;;;5123891;28;19983;-68
2024/01/16 07:28:15;;;;;;;;;;;-2.30;99.90;;;;;;5124187;28;19926;-68
2024/01/16 07:30:42;;;;;;;;;;;-2.30;99.90;;;;;;5123359;28;20112;-68
2024/01/16 07:33:10;;;;;;;;;;;-2.30;99.90;;;;;;5123893;28;19919;-67
2024/01/16 07:35:37;;;;;;;;;;;-2.30;99.90;;;;;;5123485;28;20280;-68
2024/01/16 07:38:04;;;;;;;;;;;-2.30;99.90;;;;;;5123247;28;19958;-68
2024/01/16 07:40:30;;;;;;;;;;;-2.40;99.90;;;;;;5124310;28;19919;-69
2024/01/16 07:42:57;;;;;;;;;;;-2.40;99.90;;;;;;5124235;28;19926;-68
2024/01/16 07:45:24;;;;;;;;;;;-2.30;99.90;;;;;;5123398;28;19919;-68
2024/01/16 07:47:51;;;;;;;;;;;-2.30;99.90;;;;;;5124012;28;19946;-68
2024/01/16 07:50:19;;;;;;;;;;;-2.30;99.90;;;;;;5124003;28;19970;-70
2024/01/16 07:52:45;;;;;;;;;;;-2.30;99.90;;;;;;5123429;28;19955;-69
2024/01/16 07:55:12;;;;;;;;;;;-2.30;99.90;;;;;;5121885;28;19983;-68
2024/01/16 07:57:38;;;;;;;;;;;-2.30;99.90;;;;;;5123619;28;19920;-68
2024/01/16 08:00:06;;;;;;;;;;;-2.30;99.90;;;;;;5123624;28;19951;-68
2024/01/16 08:02:33;;;;;;;;;;;-2.20;99.90;;;;;;5124110;28;19920;-68
2024/01/16 08:05:00;;;;;;;;;;;-2.20;99.90;;;;;;5123498;28;19927;-68
2024/01/16 08:07:28;;;;;;;;;;;-2.20;99.90;;;;;;5123557;28;19927;-68
2024/01/16 08:09:56;;;;;;;;;;;-2.10;99.90;;;;;;5123691;28;19961;-68
2024/01/16 08:12:22;;;;;;;;;;;-2.10;99.90;;;;;;5123593;28;20229;-68
2024/01/16 08:14:49;;;;;;;;;;;-2.10;99.90;;;;;;5123441;28;19920;-69
2024/01/16 08:17:15;;;;;;;;;;;-2.10;99.90;;;;;;5123621;28;19919;-70
2024/01/16 08:19:42;;;;;;;;;;;-2.10;99.90;;;;;;5123843;28;20122;-68
2024/01/16 08:22:09;;;;;;;;;;;-2.10;99.90;;;;;;5123774;28;19926;-68
2024/01/16 08:24:37;;;;;;;;;;;-2.00;99.90;;;;;;5123111;28;20217;-68
2024/01/16 08:27:04;;;;;;;;;;;-2.00;99.90;;;;;;5123301;28;19962;-68
2024/01/16 08:29:30;;;;;;;;;;;-2.00;99.90;;;;;;5122952;28;20259;-68
2024/01/16 08:31:57;;;;;;;;;;;-1.90;99.90;;;;;;5122722;28;19983;-68
2024/01/16 08:34:24;;;;;;;;;;;-1.90;99.90;;;;;;5123041;28;20002;-68
2024/01/16 08:36:50;;;;;;;;;;;-1.90;99.90;;;;;;5120990;28;19957;-68
2024/01/16 08:39:17;;;;;;;;;;;-1.90;99.90;;;;;;5117064;28;20109;-68
2024/01/16 08:41:45;;;;;;;;;;;-1.90;99.90;;;;;;5123246;28;19920;-68
2024/01/16 08:44:12;;;;;;;;;;;-1.90;99.90;;;;;;5120966;28;19920;-68
2024/01/16 08:46:38;;;;;;;;;;;-2.00;99.90;;;;;;5115194;28;20224;-68
2024/01/16 08:49:05;;;;;;;;;;;-2.00;99.90;;;;;;5125459;28;20214;-68
2024/01/16 08:51:32;;;;;;;;;;;-2.00;99.90;;;;;;5125978;28;19992;-68
2024/01/16 08:53:58;;;;;;;;;;;-1.90;99.90;;;;;;5125031;28;19991;-68
2024/01/16 08:56:25;;;;;;;;;;;-2.00;99.90;;;;;;5120615;28;20160;-70
2024/01/16 08:58:53;;;;;;;;;;;-1.90;99.90;;;;;;5125929;28;19972;-68
2024/01/16 09:01:20;;;;;;;;;;;-1.80;99.90;;;;;;5127082;28;19951;-68
2024/01/16 09:03:47;;;;;;;;;;;-1.70;99.90;;;;;;5126948;28;19991;-68
2024/01/16 09:06:14;;;;;;;;;;;-1.70;99.90;;;;;;5126642;28;19920;-68
2024/01/16 09:08:40;;;;;;;;;;;-1.60;99.90;;;;;;5126825;28;20068;-68
2024/01/16 09:11:07;;;;;;;;;;;-1.60;99.90;;;;;;5125266;28;19983;-70
2024/01/16 09:13:34;;;;;;;;;;;-1.50;99.90;;;;;;5126494;28;19920;-69
2024/01/16 09:16:02;;;;;;;;;;;-1.50;99.90;;;;;;5126022;28;19990;-68
2024/01/16 09:18:28;;;;;;;;;;;-1.40;99.90;;;;;;5126512;28;19967;-68
2024/01/16 09:20:55;;;;;;;;;;;-1.40;99.90;;;;;;5126693;28;19920;-69
2024/01/16 09:23:22;;;;;;;;;;;-1.40;99.90;;;;;;5126563;28;19934;-68
2024/01/16 09:25:48;;;;;;;;;;;-1.30;99.90;;;;;;5125976;28;20121;-68
2024/01/16 09:28:15;;;;;;;;;;;-1.30;99.90;;;;;;5126343;28;19919;-68
2024/01/16 09:30:42;;;;;;;;;;;-1.30;99.90;;;;;;5124780;28;19920;-68
2024/01/16 09:33:11;;;;;;;;;;;-1.30;99.90;;;;;;5126309;28;19947;-69
2024/01/16 09:35:38;;;;;;;;;;;-1.30;99.90;;;;;;5125811;28;20172;-68
2024/01/16 09:38:05;;;;;;;;;;;-1.30;99.90;;;;;;5124610;28;19963;-69
2024/01/16 09:40:32;;;;;;;;;;;-1.20;99.90;;;;;;5125861;28;19927;-68
2024/01/16 09:42:59;;;;;;;;;;;-1.10;99.90;;;;;;5126248;28;19991;-68
2024/01/16 09:45:27;;;;;;;;;;;-1.00;99.90;;;;;;5125691;28;19931;-68
2024/01/16 09:47:54;;;;;;;;;;;-0.90;99.90;;;;;;5125710;28;19926;-68
2024/01/16 09:50:21;;;;;;;;;;;-0.90;99.90;;;;;;5125882;28;20253;-68
2024/01/16 09:52:48;;;;;;;;;;;-0.90;99.90;;;;;;5125952;28;20233;-68
2024/01/16 09:55:15;;;;;;;;;;;-0.90;99.90;;;;;;5125250;28;19968;-68
2024/01/16 09:57:42;;;;;;;;;;;-0.90;99.90;;;;;;5125554;28;19965;-69
2024/01/16 10:00:11;;;;;;;;;;;-0.90;99.90;;;;;;5123594;28;20169;-70
2024/01/16 10:02:38;;;;;;;;;;;-0.90;99.90;;;;;;5125236;28;19965;-68
2024/01/16 10:05:05;;;;;;;;;;;-0.90;99.90;;;;;;5125322;28;20006;-68
2024/01/16 10:07:33;;;;;;;;;;;-1.00;99.90;;;;;;5125854;28;20297;-68
2024/01/16 10:10:00;;;;;;;;;;;-1.00;99.90;;;;;;5123950;28;19947;-68
2024/01/16 10:12:27;;;;;;;;;;;-1.00;99.90;;;;;;5125444;28;19919;-68
2024/01/16 10:14:54;;;;;;;;;;;-1.00;99.90;;;;;;5125357;28;19947;-69
2024/01/16 10:17:21;;;;;;;;;;;-1.00;99.90;;;;;;5123444;28;19983;-68
2024/01/16 10:19:49;;;;;;;;;;;-1.00;99.90;;;;;;5125441;28;19976;-69
2024/01/16 10:22:20;;;;;;;;;;;-0.90;99.90;;;;;;5125483;28;19924;-68
2024/01/16 10:24:48;;;;;;;;;;;-0.80;99.90;;;;;;5125100;28;19977;-68
2024/01/16 10:27:16;;;;;;;;;;;-0.80;99.90;;;;;;5125179;28;20225;-68
2024/01/16 10:29:55;;;;;;;;;;;-0.80;99.90;;;;;;5125355;28;19987;-68
2024/01/16 10:32:28;;;;;;;;;;;-0.80;99.90;;;;;;5119138;28;19919;-68
2024/01/16 10:35:02;;;;;;;;;;;-0.80;99.90;;;;;;5124789;28;19920;-68
2024/01/16 10:37:28;;;;;;;;;;;-0.80;99.90;;;;;;5118885;28;19920;-70
2024/01/16 10:39:56;;;;;;;;;;;-0.80;99.90;;;;;;5119557;28;19943;-67
2024/01/16 10:42:23;;;;;;;;;;;-0.80;99.90;;;;;;5125170;28;20171;-68
2024/01/16 10:44:53;;;;;;;;;;;-0.70;99.90;;;;;;5124622;28;19920;-69
2024/01/16 10:47:22;;;;;;;;;;;-0.60;99.90;;;;;;5125038;28;19990;-68
2024/01/16 10:49:48;;;;;;;;;;;-0.60;99.90;;;;;;5124360;28;20225;-69
2024/01/16 10:52:16;;;;;;;;;;;-0.60;99.90;;;;;;5124851;28;19951;-68
2024/01/16 10:54:44;;;;;;;;;;;-0.50;99.90;;;;;;5124429;28;19919;-68
2024/01/16 10:57:13;;;;;;;;;;;-0.40;99.90;;;;;;5124741;28;19919;-68
2024/01/16 10:59:41;;;;;;;;;;;-0.50;99.90;;;;;;5123023;28;19958;-68
2024/01/16 11:02:11;;;;;;;;;;;-0.40;99.90;;;;;;5123185;28;19920;-68
2024/01/16 11:04:38;;;;;;;;;;;-0.50;99.90;;;;;;5123768;28;20220;-68
2024/01/16 11:07:05;;;;;;;;;;;-0.40;99.90;;;;;;5124371;28;19983;-69
2024/01/16 11:09:32;;;;;;;;;;;-0.40;99.90;;;;;;5122960;28;19951;-68
2024/01/16 11:11:59;;;;;;;;;;;-0.40;99.90;;;;;;5124514;28;19919;-68
2024/01/16 11:14:27;;;;;;;;;;;-0.30;99.90;;;;;;5124041;28;19924;-68
2024/01/16 11:16:56;;;;;;;;;;;-0.20;99.90;;;;;;5124344;28;19932;-68
2024/01/16 11:19:23;;;;;;;;;;;0.00;99.90;;;;;;5122588;28;19951;-70
2024/01/16 11:21:50;;;;;;;;;;;0.10;99.90;;;;;;5123182;28;19948;-69
2024/01/16 11:24:16;;;;;;;;;;;0.10;99.90;;;;;;5122135;28;20161;-68
2024/01/16 11:26:43;;;;;;;;;;;0.20;99.90;;;;;;5122388;28;19991;-68
2024/01/16 11:29:29;;;;;;;;;;;0.30;99.90;;;;;;5121053;28;19951;-68
2024/01/16 11:31:57;;;;;;;;;;;0.30;99.90;;;;;;5123882;28;19947;-68
2024/01/16 11:34:38;;;;;;;;;;;0.30;99.90;;;;;;5123439;28;19919;-68
2024/01/16 11:37:07;;;;;;;;;;;0.30;99.90;;;;;;5122874;28;19947;-68
2024/01/16 11:39:34;;;;;;;;;;;0.30;99.90;;;;;;5123750;28;19982;-67
2024/01/16 11:42:03;;;;;;;;;;;0.40;99.90;;;;;;5123192;28;20123;-68
2024/01/16 11:44:42;;;;;;;;;;;0.50;99.90;;;;;;5123526;28;19927;-68
2024/01/16 11:47:10;;;;;;;;;;;0.60;99.90;;;;;;5123591;28;19955;-68
2024/01/16 11:49:37;;;;;;;;;;;0.70;99.90;;;;;;5122361;28;19947;-68
2024/01/16 11:52:04;;;;;;;;;;;0.70;99.90;;;;;;5121954;28;20243;-69
2024/01/16 11:54:30;;;;;;;;;;;0.80;99.90;;;;;;5123076;28;19955;-68
2024/01/16 11:57:25;;;;;;;;;;;0.80;99.90;;;;;;5123888;28;19982;-69
2024/01/16 11:59:59;;;;;;;;;;;0.70;99.90;;;;;;5123354;28;20221;-68
2024/01/16 12:02:30;;;;;;;;;;;0.70;99.90;;;;;;5116923;28;19927;-70
2024/01/16 12:05:02;;;;;;;;;;;0.80;99.90;;;;;;5123091;28;19978;-68
2024/01/16 12:07:29;;;;;;;;;;;0.60;99.90;;;;;;5117450;28;19920;-68
2024/01/16 12:09:59;;;;;;;;;;;0.60;99.90;;;;;;5122935;28;19928;-69
2024/01/16 12:12:26;;;;;;;;;;;0.60;99.90;;;;;;5116645;28;20188;-68
2024/01/16 12:14:54;;;;;;;;;;;0.70;99.90;;;;;;5121465;28;19920;-68
2024/01/16 12:17:21;;;;;;;;;;;0.70;99.90;;;;;;5123137;28;20233;-68
2024/01/16 12:19:49;;;;;;;;;;;0.60;99.90;;;;;;5120001;28;19926;-68
2024/01/16 12:22:17;;;;;;;;;;;0.60;99.90;;;;;;5122522;28;20157;-68
2024/01/16 12:24:45;;;;;;;;;;;0.60;99.90;;;;;;5126987;28;20095;-68
2024/01/16 12:27:11;;;;;;;;;;;0.50;99.90;;;;;;5127592;28;19926;-68
2024/01/16 12:29:39;;;;;;;;;;;0.50;99.90;;;;;;5127546;28;19951;-69
2024/01/16 12:32:07;;;;;;;;;;;0.40;99.90;;;;;;5127603;28;20159;-68
2024/01/16 12:34:34;;;;;;;;;;;0.40;99.90;;;;;;5127211;28;19926;-68
2024/01/16 12:37:07;;;;;;;;;;;0.40;99.90;;;;;;5127091;28;20395;-69
2024/01/16 12:39:35;;;;;;;;;;;0.30;99.90;;;;;;5126979;28;19919;-68
2024/01/16 12:42:02;;;;;;;;;;;0.30;99.90;;;;;;5127176;28;19919;-68
2024/01/16 12:44:28;;;;;;;;;;;0.30;99.90;;;;;;5127036;28;20184;-68
2024/01/16 12:46:56;;;;;;;;;;;0.30;99.90;;;;;;5126884;28;20202;-68
2024/01/16 12:49:22;;;;;;;;;;;0.30;99.90;;;;;;5126945;28;19927;-68
2024/01/16 12:51:49;;;;;;;;;;;0.40;99.90;;;;;;5125629;28;20224;-68
2024/01/16 12:54:18;;;;;;;;;;;0.60;99.90;;;;;;5124645;28;19926;-68
2024/01/16 12:56:45;;;;;;;;;;;0.80;99.90;;;;;;5127172;28;19920;-68
2024/01/16 12:59:13;;;;;;;;;;;1.00;99.90;;;;;;5126838;28;19958;-69
2024/01/16 13:01:39;;;;;;;;;;;1.00;99.90;;;;;;5125389;28;20215;-69
2024/01/16 13:04:06;;;;;;;;;;;1.10;99.90;;;;;;5126756;28;19979;-71
2024/01/16 13:06:33;;;;;;;;;;;1.10;99.90;;;;;;5127244;28;19951;-69
2024/01/16 13:09:09;;;;;;;;;;;1.10;99.90;;;;;;5126313;28;20304;-68
2024/01/16 13:11:46;;;;;;;;;;;1.00;99.90;;;;;;5125969;28;19924;-69
2024/01/16 13:14:13;;;;;;;;;;;0.90;99.90;;;;;;5126063;28;19951;-70
2024/01/16 13:16:39;;;;;;;;;;;0.70;99.90;;;;;;5126811;28;19955;-68
2024/01/16 13:19:09;;;;;;;;;;;0.60;99.90;;;;;;5126095;28;20217;-68
2024/01/16 13:21:36;;;;;;;;;;;0.50;99.90;;;;;;5125224;28;20260;-68
2024/01/16 13:24:03;;;;;;;;;;;0.50;99.90;;;;;;5125843;28;20206;-70
2024/01/16 13:26:30;;;;;;;;;;;0.50;99.90;;;;;;5126431;28;19927;-68
2024/01/16 13:28:58;;;;;;;;;;;0.40;99.90;;;;;;5126458;28;19982;-68
2024/01/16 13:31:24;;;;;;;;;;;0.40;99.90;;;;;;5119171;28;19920;-69
2024/01/16 13:33:51;;;;;;;;;;;0.30;99.90;;;;;;5125431;28;19987;-69
2024/01/16 13:36:18;;;;;;;;;;;0.30;99.90;;;;;;5125500;28;19919;-67
2024/01/16 13:38:45;;;;;;;;;;;0.30;99.90;;;;;;5126011;28;19924;-67
2024/01/16 13:41:12;;;;;;;;;;;0.30;99.90;;;;;;5125814;28;20279;-66
2024/01/16 13:43:38;;;;;;;;;;;0.30;99.90;;;;;;5126073;28;19927;-66
2024/01/16 13:46:08;;;;;;;;;;;0.30;99.90;;;;;;5125322;28;19926;-67
2024/01/16 13:48:35;;;;;;;;;;;0.20;99.90;;;;;;5126282;28;19987;-71
2024/01/16 13:51:01;;;;;;;;;;;0.20;99.90;;;;;;5126168;28;19920;-68
2024/01/16 13:53:28;;;;;;;;;;;0.30;99.90;;;;;;5125833;28;20117;-68
2024/01/16 13:55:54;;;;;;;;;;;0.30;99.90;;;;;;5124908;28;19927;-70
2024/01/16 13:58:21;;;;;;;;;;;0.30;99.90;;;;;;5125154;28;19955;-68
2024/01/16 14:00:48;;;;;;;;;;;0.30;99.90;;;;;;5125479;28;19926;-68
2024/01/16 14:03:17;;;;;;;;;;;0.40;99.90;;;;;;5125940;28;19923;-70
2024/01/16 14:05:43;;;;;;;;;;;0.40;99.90;;;;;;5125124;28;20016;-69
2024/01/16 14:08:12;;;;;;;;;;;0.40;99.90;;;;;;5123758;28;20154;-69
2024/01/16 14:10:39;;;;;;;;;;;0.30;99.90;;;;;;5125199;28;19965;-69
2024/01/16 14:13:06;;;;;;;;;;;0.20;99.90;;;;;;5125484;28;19927;-69
2024/01/16 14:15:32;;;;;;;;;;;0.00;99.90;;;;;;5125007;28;19919;-70
2024/01/16 14:17:59;;;;;;;;;;;-0.10;99.90;;;;;;5117247;28;19951;-68
2024/01/16 14:20:27;;;;;;;;;;;-0.10;99.90;;;;;;5124390;28;19926;-68